createdAt,value
2022-08-20T00:01:16.602Z,19.61
2022-08-20T00:03:44.687Z,19.34
2022-08-20T00:06:20.771Z,19.31
2022-08-20T00:08:48.533Z,19.32
2022-08-20T00:11:26.648Z,19.38
2022-08-20T00:13:59.659Z,19.72
2022-08-20T00:16:32.397Z,19.59
2022-08-20T00:19:07.457Z,19.92
2022-08-20T00:21:36.554Z,19.68
2022-08-20T00:24:04.903Z,19.85
2022-08-20T00:26:32.430Z,20.48
2022-08-20T00:28:59.648Z,20.39
2022-08-20T00:31:28.738Z,20.50
2022-08-20T00:33:55.929Z,20.51
2022-08-20T00:36:32.268Z,20.73
2022-08-20T00:39:01.237Z,20.77
2022-08-20T00:41:29.451Z,20.71
2022-08-20T00:44:22.557Z,20.65
2022-08-20T00:46:51.483Z,20.44
2022-08-20T00:49:27.860Z,20.14
2022-08-20T00:52:05.958Z,20.25
2022-08-20T00:54:49.242Z,20.55
2022-08-20T00:57:58.926Z,20.43
2022-08-20T01:00:26.013Z,20.38
2022-08-20T01:02:54.043Z,20.94
2022-08-20T01:05:23.552Z,20.82
2022-08-20T01:07:56.771Z,20.76
2022-08-20T01:10:34.941Z,20.84
2022-08-20T01:13:11.440Z,20.98
2022-08-20T01:15:43.436Z,20.94
2022-08-20T01:18:16.481Z,20.79
2022-08-20T01:20:58.986Z,20.84
2022-08-20T01:23:53.247Z,20.80
2022-08-20T01:26:25.920Z,21.00
2022-08-20T01:29:04.266Z,20.58
2022-08-20T01:31:36.991Z,20.56
2022-08-20T01:34:08.265Z,20.42
2022-08-20T01:36:51.841Z,20.89
2022-08-20T01:39:32.974Z,20.95
2022-08-20T01:42:22.489Z,21.12
2022-08-20T01:44:50.342Z,21.10
2022-08-20T01:47:28.129Z,21.05
2022-08-20T01:50:08.010Z,20.93
2022-08-20T01:53:12.069Z,21.09
2022-08-20T01:55:39.913Z,21.25
2022-08-20T01:58:06.952Z,21.25
2022-08-20T02:00:35.645Z,21.31
2022-08-20T02:03:04.109Z,21.27
2022-08-20T02:05:33.230Z,20.90
2022-08-20T02:08:02.015Z,21.02
2022-08-20T02:10:31.928Z,20.82
2022-08-20T02:13:00.702Z,20.73
2022-08-20T02:15:35.027Z,21.03
2022-08-20T02:18:14.984Z,20.65
2022-08-20T02:20:43.479Z,20.76
2022-08-20T02:23:12.364Z,21.01
2022-08-20T02:25:42.074Z,21.09
2022-08-20T02:28:12.655Z,21.28
2022-08-20T02:30:45.904Z,21.04
2022-08-20T02:33:17.326Z,21.08
2022-08-20T02:35:49.131Z,21.31
2022-08-20T02:38:17.277Z,21.06
2022-08-20T02:40:46.670Z,21.02
2022-08-20T02:43:14.474Z,21.18
2022-08-20T02:45:44.230Z,21.09
2022-08-20T02:48:21.439Z,21.13
2022-08-20T02:51:01.419Z,21.04
2022-08-20T02:53:33.242Z,21.08
2022-08-20T02:56:01.032Z,20.98
2022-08-20T02:58:28.569Z,20.92
2022-08-20T03:00:57.089Z,20.87
2022-08-20T03:03:25.455Z,20.81
2022-08-20T03:05:57.097Z,20.73
2022-08-20T03:08:25.847Z,20.84
2022-08-20T03:10:53.449Z,20.84
2022-08-20T03:13:22.185Z,21.06
2022-08-20T03:15:58.651Z,21.17
2022-08-20T03:18:33.129Z,21.28
2022-08-20T03:21:00.442Z,21.20
2022-08-20T03:23:27.563Z,21.02
2022-08-20T03:25:54.667Z,20.88
2022-08-20T03:28:21.785Z,21.10
2022-08-20T03:30:50.521Z,20.83
2022-08-20T03:33:20.154Z,20.88
2022-08-20T03:35:48.135Z,20.84
2022-08-20T03:38:32.236Z,20.72
2022-08-20T03:41:02.221Z,20.81
2022-08-20T03:43:29.941Z,20.84
2022-08-20T03:45:57.296Z,20.91
2022-08-20T03:48:25.298Z,20.94
2022-08-20T03:50:53.173Z,20.92
2022-08-20T03:53:20.158Z,20.94
2022-08-20T03:55:54.357Z,20.82
2022-08-20T03:58:33.301Z,21.01
2022-08-20T04:01:07.273Z,21.04
2022-08-20T04:03:36.259Z,20.99
2022-08-20T04:06:04.379Z,20.98
2022-08-20T04:08:31.785Z,20.99
2022-08-20T04:10:59.772Z,20.94
2022-08-20T04:13:30.676Z,21.10
2022-08-20T04:16:01.112Z,20.96
2022-08-20T04:18:28.314Z,21.11
2022-08-20T04:20:55.638Z,21.27
2022-08-20T04:23:23.131Z,21.19
2022-08-20T04:25:50.595Z,21.05
2022-08-20T04:28:27.080Z,21.33
2022-08-20T04:30:59.562Z,21.23
2022-08-20T04:33:33.995Z,21.24
2022-08-20T04:36:05.561Z,21.18
2022-08-20T04:38:50.169Z,21.15
2022-08-20T04:41:22.723Z,21.01
2022-08-20T04:43:54.053Z,21.15
2022-08-20T04:46:25.576Z,21.14
2022-08-20T04:48:53.839Z,21.07
2022-08-20T04:51:23.287Z,21.01
2022-08-20T04:53:54.457Z,21.14
2022-08-20T04:56:24.515Z,21.27
2022-08-20T04:58:54.816Z,20.98
2022-08-20T05:01:24.030Z,20.92
2022-08-20T05:03:54.629Z,20.78
2022-08-20T05:06:26.104Z,20.44
2022-08-20T05:08:54.741Z,20.46
2022-08-20T05:11:34.620Z,20.58
2022-08-20T05:14:09.194Z,20.51
2022-08-20T05:16:39.320Z,20.26
2022-08-20T05:19:09.739Z,20.09
2022-08-20T05:21:37.870Z,20.30
2022-08-20T05:24:06.664Z,20.48
2022-08-20T05:26:34.051Z,20.53
2022-08-20T05:29:04.660Z,20.44
2022-08-20T05:31:33.580Z,20.56
2022-08-20T05:34:12.694Z,20.54
2022-08-20T05:36:48.279Z,20.82
2022-08-20T05:39:20.813Z,20.90
2022-08-20T05:41:49.917Z,20.66
2022-08-20T05:44:18.620Z,20.48
2022-08-20T05:46:48.173Z,20.53
2022-08-20T05:49:20.068Z,20.92
2022-08-20T05:51:48.862Z,20.97
2022-08-20T05:54:16.043Z,21.01
2022-08-20T05:56:43.452Z,20.78
2022-08-20T05:59:12.706Z,20.76
2022-08-20T06:01:41.265Z,20.87
2022-08-20T06:04:26.930Z,20.73
2022-08-20T06:07:07.078Z,20.59
2022-08-20T06:09:36.420Z,20.82
2022-08-20T06:12:07.758Z,20.78
2022-08-20T06:14:35.886Z,21.12
2022-08-20T06:17:10.822Z,21.09
2022-08-20T06:19:44.480Z,20.80
2022-08-20T06:22:19.087Z,20.50
2022-08-20T06:24:49.120Z,20.20
2022-08-20T06:27:17.473Z,20.28
2022-08-20T06:29:44.715Z,20.22
2022-08-20T06:32:12.339Z,20.33
2022-08-20T06:34:49.992Z,20.32
2022-08-20T06:37:27.430Z,20.36
2022-08-20T06:40:10.075Z,20.40
2022-08-20T06:42:45.727Z,20.47
2022-08-20T06:45:24.513Z,20.38
2022-08-20T06:47:58.312Z,20.39
2022-08-20T06:50:33.715Z,20.56
2022-08-20T06:53:00.961Z,20.46
2022-08-20T06:55:28.028Z,21.01
2022-08-20T06:58:06.050Z,20.88
2022-08-20T07:00:35.578Z,20.94
2022-08-20T07:03:04.322Z,21.01
2022-08-20T07:05:35.793Z,21.24
2022-08-20T07:08:04.343Z,21.21
2022-08-20T07:10:32.043Z,21.50
2022-08-20T07:13:00.549Z,21.35
2022-08-20T07:15:28.200Z,21.30
2022-08-20T07:18:01.358Z,21.24
2022-08-20T07:20:31.686Z,20.84
2022-08-20T07:22:59.586Z,20.89
2022-08-20T07:25:27.235Z,21.04
2022-08-20T07:28:02.302Z,20.66
2022-08-20T07:30:56.473Z,20.85
2022-08-20T07:33:26.509Z,20.93
2022-08-20T07:35:57.700Z,20.95
2022-08-20T07:38:27.168Z,21.28
2022-08-20T07:41:00.173Z,21.10
2022-08-20T07:43:28.302Z,21.33
2022-08-20T07:46:00.854Z,21.96
2022-08-20T07:48:32.450Z,22.14
2022-08-20T07:51:05.086Z,21.96
2022-08-20T07:53:35.993Z,22.35
2022-08-20T07:56:07.608Z,21.85
2022-08-20T07:58:38.885Z,22.25
2022-08-20T08:01:07.596Z,22.47
2022-08-20T08:03:41.108Z,23.16
2022-08-20T08:06:28.706Z,22.11
2022-08-20T08:09:11.849Z,21.64
2022-08-20T08:11:47.293Z,21.76
2022-08-20T08:14:17.211Z,22.25
2022-08-20T08:16:45.808Z,21.91
2022-08-20T08:19:17.238Z,22.18
2022-08-20T08:21:44.506Z,22.87
2022-08-20T08:24:15.486Z,22.41
2022-08-20T08:26:46.509Z,22.89
2022-08-20T08:29:13.667Z,23.01
2022-08-20T08:31:41.289Z,22.03
2022-08-20T08:34:09.115Z,23.09
2022-08-20T08:36:36.151Z,23.16
2022-08-20T08:39:03.163Z,23.12
2022-08-20T08:41:35.569Z,22.92
2022-08-20T08:44:23.690Z,23.11
2022-08-20T08:47:13.824Z,22.51
2022-08-20T08:49:40.899Z,22.81
2022-08-20T08:52:20.015Z,23.35
2022-08-20T08:54:52.839Z,24.26
2022-08-20T08:57:20.176Z,23.96
2022-08-20T09:00:03.525Z,23.73
2022-08-20T09:02:36.271Z,24.45
2022-08-20T09:05:16.102Z,24.11
2022-08-20T09:07:48.332Z,24.36
2022-08-20T09:10:17.675Z,23.90
2022-08-20T09:12:50.811Z,24.30
2022-08-20T09:15:21.242Z,23.76
2022-08-20T09:17:48.774Z,24.19
2022-08-20T09:20:15.939Z,25.07
2022-08-20T09:22:42.906Z,25.03
2022-08-20T09:25:10.337Z,24.95
2022-08-20T09:27:37.569Z,25.27
2022-08-20T09:30:09.808Z,25.43
2022-08-20T09:32:36.845Z,24.44
2022-08-20T09:35:09.259Z,25.07
2022-08-20T09:37:37.801Z,24.76
2022-08-20T09:40:08.886Z,25.08
2022-08-20T09:42:41.267Z,25.38
2022-08-20T09:45:11.410Z,25.30
2022-08-20T09:47:55.116Z,25.40
2022-08-20T09:50:31.809Z,25.59
2022-08-20T09:53:01.014Z,24.64
2022-08-20T09:55:45.510Z,24.51
2022-08-20T09:58:34.323Z,25.82
2022-08-20T10:01:17.828Z,25.97
2022-08-20T10:03:49.511Z,26.13
2022-08-20T10:06:20.436Z,26.00
2022-08-20T10:08:49.043Z,26.04
2022-08-20T10:11:17.976Z,25.79
2022-08-20T10:13:45.942Z,26.40
2022-08-20T10:16:13.260Z,25.04
2022-08-20T10:18:40.334Z,25.38
2022-08-20T10:21:11.832Z,26.33
2022-08-20T10:23:38.861Z,25.90
2022-08-20T10:26:09.116Z,25.49
2022-08-20T10:28:36.725Z,26.90
2022-08-20T10:31:07.418Z,26.27
2022-08-20T10:33:35.977Z,27.53
2022-08-20T10:36:12.387Z,26.40
2022-08-20T10:38:39.665Z,26.48
2022-08-20T10:41:06.713Z,26.05
2022-08-20T10:43:33.860Z,25.72
2022-08-20T10:46:01.282Z,26.69
2022-08-20T10:48:28.591Z,26.34
2022-08-20T10:50:55.709Z,25.51
2022-08-20T10:53:22.737Z,25.70
2022-08-20T10:55:49.824Z,26.29
2022-08-20T10:58:16.928Z,26.52
2022-08-20T11:00:45.758Z,27.23
2022-08-20T11:03:13.396Z,26.23
2022-08-20T11:05:40.497Z,27.12
2022-08-20T11:08:07.661Z,26.86
2022-08-20T11:10:36.758Z,26.58
2022-08-20T11:13:08.335Z,26.69
2022-08-20T11:15:42.519Z,27.29
2022-08-20T11:18:10.743Z,27.02
2022-08-20T11:20:37.804Z,26.66
2022-08-20T11:23:05.209Z,27.63
2022-08-20T11:25:32.473Z,27.26
2022-08-20T11:28:00.212Z,26.48
2022-08-20T11:30:33.134Z,26.66
2022-08-20T11:33:01.243Z,26.48
2022-08-20T11:35:43.487Z,26.75
2022-08-20T11:38:17.852Z,26.44
2022-08-20T11:40:46.832Z,25.93
2022-08-20T11:43:16.259Z,25.98
2022-08-20T11:45:52.577Z,26.17
2022-08-20T11:48:20.135Z,26.06
2022-08-20T11:50:48.784Z,24.96
2022-08-20T11:53:16.520Z,24.27
2022-08-20T11:55:44.043Z,23.48
2022-08-20T11:58:11.745Z,24.67
2022-08-20T12:00:39.417Z,24.22
2022-08-20T12:03:09.263Z,24.60
2022-08-20T12:05:38.761Z,24.20
2022-08-20T12:08:06.578Z,24.65
2022-08-20T12:10:34.379Z,24.72
2022-08-20T12:13:02.664Z,24.97
2022-08-20T12:15:33.403Z,24.12
2022-08-20T12:18:01.811Z,24.33
2022-08-20T12:20:28.812Z,24.37
2022-08-20T12:22:56.122Z,25.03
2022-08-20T12:25:23.388Z,25.48
2022-08-20T12:27:50.433Z,24.84
2022-08-20T12:30:22.867Z,25.00
2022-08-20T12:32:50.355Z,24.74
2022-08-20T12:35:18.769Z,25.17
2022-08-20T12:37:47.024Z,25.43
2022-08-20T12:40:31.727Z,25.63
2022-08-20T12:43:01.739Z,26.28
2022-08-20T12:45:29.883Z,26.18
2022-08-20T12:48:10.664Z,26.19
2022-08-20T12:50:40.677Z,26.74
2022-08-20T12:53:08.749Z,26.47
2022-08-20T12:55:36.024Z,27.08
2022-08-20T12:58:07.390Z,27.26
2022-08-20T13:00:44.280Z,28.02
2022-08-20T13:03:17.461Z,27.78
2022-08-20T13:05:44.466Z,27.87
2022-08-20T13:08:12.923Z,27.52
2022-08-20T13:10:45.993Z,28.12
2022-08-20T13:13:20.557Z,28.61
2022-08-20T13:15:50.758Z,28.58
2022-08-20T13:18:19.108Z,27.82
2022-08-20T13:20:46.656Z,27.36
2022-08-20T13:23:13.626Z,28.33
2022-08-20T13:25:40.841Z,27.44
2022-08-20T13:28:08.086Z,28.42
2022-08-20T13:30:38.715Z,27.80
2022-08-20T13:33:06.074Z,28.14
2022-08-20T13:35:33.270Z,28.27
2022-08-20T13:38:00.348Z,28.23
2022-08-20T13:40:27.949Z,27.58
2022-08-20T13:42:55.084Z,27.00
2022-08-20T13:45:22.514Z,27.06
2022-08-20T13:47:54.385Z,27.96
2022-08-20T13:50:24.406Z,28.29
2022-08-20T13:52:51.599Z,28.51
2022-08-20T13:55:22.711Z,28.91
2022-08-20T13:57:51.570Z,28.99
2022-08-20T14:00:31.122Z,29.30
2022-08-20T14:03:04.256Z,29.36
2022-08-20T14:05:33.326Z,30.05
2022-08-20T14:08:13.882Z,28.09
2022-08-20T14:10:42.722Z,28.70
2022-08-20T14:13:14.616Z,29.41
2022-08-20T14:15:44.900Z,28.92
2022-08-20T14:18:14.735Z,27.68
2022-08-20T14:20:43.051Z,28.15
2022-08-20T14:23:13.253Z,28.16
2022-08-20T14:25:40.551Z,27.58
2022-08-20T14:28:19.145Z,27.09
2022-08-20T14:30:53.198Z,25.37
2022-08-20T14:33:22.154Z,25.53
2022-08-20T14:35:49.904Z,25.24
2022-08-20T14:38:18.015Z,24.52
2022-08-20T14:40:46.390Z,24.67
2022-08-20T14:43:13.636Z,24.20
2022-08-20T14:45:40.742Z,23.90
2022-08-20T14:48:09.428Z,24.38
2022-08-20T14:50:37.398Z,24.54
2022-08-20T14:53:05.272Z,23.67
2022-08-20T14:55:37.569Z,23.18
2022-08-20T14:58:10.575Z,23.72
2022-08-20T15:00:38.565Z,23.31
2022-08-20T15:03:05.955Z,23.36
2022-08-20T15:05:33.788Z,23.36
2022-08-20T15:08:00.898Z,23.45
2022-08-20T15:10:33.499Z,23.29
2022-08-20T15:13:02.661Z,23.86
2022-08-20T15:15:30.294Z,23.74
2022-08-20T15:18:02.534Z,23.96
2022-08-20T15:20:33.603Z,22.91
2022-08-20T15:23:01.450Z,23.88
2022-08-20T15:25:36.136Z,23.23
2022-08-20T15:28:05.933Z,23.32
2022-08-20T15:30:35.914Z,24.76
2022-08-20T15:33:03.326Z,23.94
2022-08-20T15:35:30.873Z,24.39
2022-08-20T15:37:59.431Z,24.27
2022-08-20T15:40:30.606Z,24.43
2022-08-20T15:42:59.962Z,24.67
2022-08-20T15:45:27.468Z,24.22
2022-08-20T15:48:11.902Z,24.82
2022-08-20T15:51:27.462Z,25.09
2022-08-20T15:54:13.735Z,24.83
2022-08-20T15:57:11.911Z,24.40
2022-08-20T16:00:21.841Z,24.94
2022-08-20T16:03:19.978Z,25.17
2022-08-20T16:06:17.317Z,25.13
2022-08-20T16:09:09.200Z,25.42
2022-08-20T16:12:10.397Z,24.77
2022-08-20T16:14:43.828Z,25.36
2022-08-20T16:17:17.799Z,24.59
2022-08-20T16:20:12.003Z,24.88
2022-08-20T16:22:44.931Z,25.58
2022-08-20T16:25:13.559Z,25.28
2022-08-20T16:27:49.415Z,25.74
2022-08-20T16:30:56.301Z,25.46
2022-08-20T16:33:28.649Z,25.30
2022-08-20T16:36:13.570Z,25.10
2022-08-20T16:38:44.037Z,25.58
2022-08-20T16:41:16.280Z,25.64
2022-08-20T16:44:02.534Z,25.46
2022-08-20T16:46:38.078Z,25.39
2022-08-20T16:49:13.929Z,25.23
2022-08-20T16:51:52.060Z,25.49
2022-08-20T16:54:28.245Z,25.54
2022-08-20T16:57:06.212Z,25.65
2022-08-20T16:59:33.982Z,25.33
2022-08-20T17:02:11.387Z,25.57
2022-08-20T17:04:59.556Z,25.87
2022-08-20T17:07:57.343Z,25.51
2022-08-20T17:10:40.165Z,25.48
2022-08-20T17:13:16.106Z,25.97
2022-08-20T17:15:44.793Z,25.81
2022-08-20T17:18:40.282Z,25.36
2022-08-20T17:21:23.485Z,25.69
2022-08-20T17:24:16.839Z,25.74
2022-08-20T17:26:56.834Z,25.95
2022-08-20T17:29:29.591Z,25.48
2022-08-20T17:32:28.777Z,25.46
2022-08-20T17:35:01.876Z,25.96
2022-08-20T17:37:41.940Z,25.69
2022-08-20T17:40:17.526Z,25.69
2022-08-20T17:43:02.253Z,25.53
2022-08-20T17:45:42.766Z,25.90
2022-08-20T17:48:24.287Z,25.79
2022-08-20T17:51:00.486Z,25.78
2022-08-20T17:53:48.660Z,26.24
2022-08-20T17:56:34.897Z,25.81
2022-08-20T17:59:59.900Z,26.03
2022-08-20T18:02:17.075Z,26.15
2022-08-20T18:04:46.152Z,26.16
2022-08-20T18:07:27.757Z,26.42
2022-08-20T18:10:18.405Z,25.68
2022-08-20T18:13:14.367Z,25.31
2022-08-20T18:15:58.656Z,25.31
2022-08-20T18:18:52.911Z,25.06
2022-08-20T18:21:45.284Z,25.13
2022-08-20T18:24:53.421Z,25.04
2022-08-20T18:27:25.471Z,24.86
2022-08-20T18:30:00.287Z,24.79
2022-08-20T18:32:27.519Z,24.73
2022-08-20T18:35:07.047Z,24.74
2022-08-20T18:37:34.017Z,24.34
2022-08-20T18:40:33.546Z,24.34
2022-08-20T18:43:28.017Z,24.39
2022-08-20T18:45:55.041Z,24.97
2022-08-20T18:48:25.016Z,24.83
2022-08-20T18:50:56.734Z,24.59
2022-08-20T18:53:34.161Z,24.83
2022-08-20T18:56:13.587Z,23.81
2022-08-20T18:59:09.605Z,23.86
2022-08-20T19:01:38.730Z,23.74
2022-08-20T19:04:28.134Z,23.23
2022-08-20T19:07:04.382Z,23.96
2022-08-20T19:10:27.897Z,22.61
2022-08-20T19:13:25.959Z,23.48
2022-08-20T19:16:04.029Z,23.75
2022-08-20T19:18:46.942Z,23.03
2022-08-20T19:21:18.881Z,23.60
2022-08-20T19:23:54.222Z,23.29
2022-08-20T19:26:25.397Z,22.17
2022-08-20T19:29:10.676Z,23.25
2022-08-20T19:31:38.080Z,22.88
2022-08-20T19:34:35.778Z,23.23
2022-08-20T19:37:35.364Z,23.05
2022-08-20T19:40:29.000Z,22.65
2022-08-20T19:43:01.343Z,22.39
2022-08-20T19:45:45.458Z,22.63
2022-08-20T19:49:14.096Z,22.44
2022-08-20T19:52:38.218Z,22.51
2022-08-20T19:55:13.352Z,21.98
2022-08-20T19:57:48.750Z,21.76
2022-08-20T20:00:16.353Z,22.01
2022-08-20T20:02:44.017Z,21.66
2022-08-20T20:05:11.559Z,21.99
2022-08-20T20:07:52.311Z,21.70
2022-08-20T20:10:32.750Z,21.35
2022-08-20T20:13:16.676Z,22.07
2022-08-20T20:15:44.266Z,21.71
2022-08-20T20:18:12.986Z,21.49
2022-08-20T20:20:58.108Z,21.81
2022-08-20T20:23:45.597Z,21.48
2022-08-20T20:26:20.181Z,21.71
2022-08-20T20:28:53.461Z,20.99
2022-08-20T20:31:36.377Z,20.63
2022-08-20T20:34:11.547Z,21.56
2022-08-20T20:36:42.047Z,21.51
2022-08-20T20:39:33.080Z,21.34
2022-08-20T20:42:08.749Z,21.73
2022-08-20T20:44:43.245Z,21.11
2022-08-20T20:47:33.754Z,21.20
2022-08-20T20:50:07.664Z,21.09
2022-08-20T20:52:48.392Z,20.57
2022-08-20T20:55:22.902Z,20.63
2022-08-20T20:57:51.653Z,20.32
2022-08-20T21:00:21.909Z,20.10
2022-08-20T21:02:49.661Z,21.02
2022-08-20T21:05:20.292Z,20.46
2022-08-20T21:07:52.103Z,20.47
2022-08-20T21:10:22.959Z,20.26
2022-08-20T21:12:52.894Z,20.54
2022-08-20T21:15:23.726Z,20.95
2022-08-20T21:17:51.738Z,21.30
2022-08-20T21:20:21.013Z,20.14
2022-08-20T21:22:48.051Z,20.14
2022-08-20T21:25:15.239Z,20.70
2022-08-20T21:27:47.275Z,20.44
2022-08-20T21:30:16.591Z,20.26
2022-08-20T21:32:43.580Z,19.96
2022-08-20T21:35:11.620Z,19.69
2022-08-20T21:37:38.840Z,20.26
2022-08-20T21:40:09.447Z,20.44
2022-08-20T21:42:39.740Z,20.24
2022-08-20T21:45:11.429Z,20.44
2022-08-20T21:47:38.552Z,20.32
2022-08-20T21:50:08.102Z,20.40
2022-08-20T21:52:35.947Z,20.13
2022-08-20T21:55:03.314Z,20.10
2022-08-20T21:57:33.699Z,20.17
2022-08-20T22:00:06.106Z,20.48
2022-08-20T22:02:33.104Z,20.70
2022-08-20T22:05:00.056Z,20.22
2022-08-20T22:07:27.169Z,20.54
2022-08-20T22:09:54.147Z,19.67
2022-08-20T22:12:26.741Z,20.82
2022-08-20T22:14:54.936Z,20.63
2022-08-20T22:17:22.136Z,19.97
2022-08-20T22:19:49.570Z,19.75
2022-08-20T22:22:20.862Z,19.46
2022-08-20T22:24:47.999Z,20.57
2022-08-20T22:27:15.234Z,20.52
2022-08-20T22:29:42.650Z,20.35
2022-08-20T22:32:10.640Z,20.34
2022-08-20T22:34:38.208Z,20.43
2022-08-20T22:37:06.199Z,20.37
2022-08-20T22:39:33.409Z,19.83
2022-08-20T22:42:00.631Z,20.14
2022-08-20T22:44:27.690Z,20.51
2022-08-20T22:47:00.109Z,20.05
2022-08-20T22:49:32.173Z,19.57
2022-08-20T22:51:59.886Z,19.44
2022-08-20T22:54:27.598Z,20.17
2022-08-20T22:56:55.115Z,20.32
2022-08-20T22:59:23.482Z,19.61
2022-08-20T23:01:51.904Z,19.64
2022-08-20T23:04:28.750Z,19.32
2022-08-20T23:06:57.781Z,19.17
2022-08-20T23:09:26.591Z,18.87
2022-08-20T23:11:53.863Z,18.54
2022-08-20T23:14:21.855Z,19.00
2022-08-20T23:16:59.817Z,19.48
2022-08-20T23:19:27.185Z,19.64
2022-08-20T23:21:54.548Z,18.22
2022-08-20T23:24:21.810Z,18.28
2022-08-20T23:26:53.035Z,18.68
2022-08-20T23:29:25.462Z,18.97
2022-08-20T23:31:57.306Z,19.21
2022-08-20T23:34:25.993Z,18.65
2022-08-20T23:36:56.557Z,18.74
2022-08-20T23:39:25.147Z,18.68
2022-08-20T23:41:52.663Z,19.03
2022-08-20T23:44:26.101Z,18.55
2022-08-20T23:47:01.933Z,17.94
2022-08-20T23:49:31.375Z,18.33
2022-08-20T23:52:00.581Z,18.56
2022-08-20T23:54:32.930Z,18.62
2022-08-20T23:57:00.263Z,18.45
2022-08-20T23:59:27.353Z,18.47
